sensor_id;sensor_type;location;lat;lon;timestamp;pressure;altitude;pressure_sealevel;temperature;humidity
16525;BME280;8375;33.594;-117.718;2023-05-12T00:02:25;100122.44;;;19.70;59.93
16525;BME280;8375;33.594;-117.718;2023-05-12T00:04:54;100126.25;;;19.68;60.19
16525;BME280;8375;33.594;-117.718;2023-05-12T00:07:22;100127.06;;;19.68;60.46
16525;BME280;8375;33.594;-117.718;2023-05-12T00:09:51;100123.06;;;19.72;60.37
16525;BME280;8375;33.594;-117.718;2023-05-12T00:12:20;100128.53;;;19.71;60.81
16525;BME280;8375;33.594;-117.718;2023-05-12T00:14:49;100120.78;;;19.69;61.53
16525;BME280;8375;33.594;-117.718;2023-05-12T00:17:18;100129.25;;;19.64;62.25
16525;BME280;8375;33.594;-117.718;2023-05-12T00:19:48;100124.44;;;19.68;62.38
16525;BME280;8375;33.594;-117.718;2023-05-12T00:22:17;100124.44;;;19.68;62.64
16525;BME280;8375;33.594;-117.718;2023-05-12T00:24:46;100123.53;;;19.76;62.60
16525;BME280;8375;33.594;-117.718;2023-05-12T00:27:15;100127.72;;;19.85;62.67
16525;BME280;8375;33.594;-117.718;2023-05-12T00:29:44;100136.84;;;19.98;62.56
16525;BME280;8375;33.594;-117.718;2023-05-12T00:32:13;100135.44;;;19.87;62.40
16525;BME280;8375;33.594;-117.718;2023-05-12T00:34:42;100129.59;;;19.76;63.30
16525;BME280;8375;33.594;-117.718;2023-05-12T00:37:13;100136.06;;;19.74;63.37
16525;BME280;8375;33.594;-117.718;2023-05-12T00:39:42;100138.78;;;19.66;63.00
16525;BME280;8375;33.594;-117.718;2023-05-12T00:42:11;100138.66;;;19.59;63.33
16525;BME280;8375;33.594;-117.718;2023-05-12T00:44:40;100139.72;;;19.49;63.86
16525;BME280;8375;33.594;-117.718;2023-05-12T00:47:09;100138.94;;;19.49;63.97
16525;BME280;8375;33.594;-117.718;2023-05-12T00:49:38;100140.09;;;19.46;64.10
16525;BME280;8375;33.594;-117.718;2023-05-12T00:52:08;100139.88;;;19.33;64.09
16525;BME280;8375;33.594;-117.718;2023-05-12T00:54:39;100144.84;;;19.28;65.13
16525;BME280;8375;33.594;-117.718;2023-05-12T00:57:10;100141.63;;;19.17;65.26
16525;BME280;8375;33.594;-117.718;2023-05-12T00:59:39;100137.44;;;19.08;65.50
16525;BME280;8375;33.594;-117.718;2023-05-12T01:02:08;100139.13;;;19.01;65.89
16525;BME280;8375;33.594;-117.718;2023-05-12T01:04:38;100139.47;;;18.98;66.02
16525;BME280;8375;33.594;-117.718;2023-05-12T01:07:11;100135.56;;;18.85;66.56
16525;BME280;8375;33.594;-117.718;2023-05-12T01:09:43;100140.25;;;18.75;66.52
16525;BME280;8375;33.594;-117.718;2023-05-12T01:12:12;100145.88;;;18.64;67.08
16525;BME280;8375;33.594;-117.718;2023-05-12T01:14:41;100136.09;;;18.49;67.33
16525;BME280;8375;33.594;-117.718;2023-05-12T01:17:12;100136.13;;;18.41;67.82
16525;BME280;8375;33.594;-117.718;2023-05-12T01:19:45;100134.19;;;18.35;68.11
16525;BME280;8375;33.594;-117.718;2023-05-12T01:22:16;100137.31;;;18.30;68.20
16525;BME280;8375;33.594;-117.718;2023-05-12T01:24:49;100135.00;;;18.35;67.97
16525;BME280;8375;33.594;-117.718;2023-05-12T01:27:22;100140.44;;;18.33;67.95
16525;BME280;8375;33.594;-117.718;2023-05-12T01:29:51;100134.03;;;18.28;68.01
16525;BME280;8375;33.594;-117.718;2023-05-12T01:32:21;100136.53;;;18.21;68.27
16525;BME280;8375;33.594;-117.718;2023-05-12T01:34:50;100131.13;;;18.14;68.63
16525;BME280;8375;33.594;-117.718;2023-05-12T01:37:19;100138.56;;;18.02;68.95
16525;BME280;8375;33.594;-117.718;2023-05-12T01:39:49;100146.25;;;17.96;69.51
16525;BME280;8375;33.594;-117.718;2023-05-12T01:42:18;100145.97;;;17.82;69.57
16525;BME280;8375;33.594;-117.718;2023-05-12T01:44:48;100146.63;;;17.76;70.08
16525;BME280;8375;33.594;-117.718;2023-05-12T01:47:17;100151.41;;;17.56;71.05
16525;BME280;8375;33.594;-117.718;2023-05-12T01:49:47;100142.06;;;17.45;72.03
16525;BME280;8375;33.594;-117.718;2023-05-12T01:52:15;100141.91;;;17.38;73.00
16525;BME280;8375;33.594;-117.718;2023-05-12T01:54:44;100148.94;;;17.38;72.61
16525;BME280;8375;33.594;-117.718;2023-05-12T01:57:13;100148.81;;;17.39;72.87
16525;BME280;8375;33.594;-117.718;2023-05-12T01:59:42;100158.13;;;17.34;72.84
16525;BME280;8375;33.594;-117.718;2023-05-12T02:02:12;100147.16;;;17.30;73.13
16525;BME280;8375;33.594;-117.718;2023-05-12T02:04:41;100150.59;;;17.30;73.43
16525;BME280;8375;33.594;-117.718;2023-05-12T02:07:10;100150.44;;;17.32;73.35
16525;BME280;8375;33.594;-117.718;2023-05-12T02:09:41;100160.41;;;17.28;73.42
16525;BME280;8375;33.594;-117.718;2023-05-12T02:12:09;100155.16;;;17.20;73.43
16525;BME280;8375;33.594;-117.718;2023-05-12T02:14:39;100153.72;;;17.18;73.27
16525;BME280;8375;33.594;-117.718;2023-05-12T02:17:07;100159.09;;;17.16;73.78
16525;BME280;8375;33.594;-117.718;2023-05-12T02:19:38;100166.94;;;17.08;74.65
16525;BME280;8375;33.594;-117.718;2023-05-12T02:22:07;100171.72;;;17.04;74.99
16525;BME280;8375;33.594;-117.718;2023-05-12T02:24:36;100166.13;;;16.99;74.82
16525;BME280;8375;33.594;-117.718;2023-05-12T02:27:05;100175.97;;;16.97;74.53
16525;BME280;8375;33.594;-117.718;2023-05-12T02:29:34;100174.75;;;16.91;75.22
16525;BME280;8375;33.594;-117.718;2023-05-12T02:32:03;100168.06;;;16.89;75.05
16525;BME280;8375;33.594;-117.718;2023-05-12T02:34:32;100173.44;;;16.87;75.17
16525;BME280;8375;33.594;-117.718;2023-05-12T02:37:03;100172.44;;;16.80;75.63
16525;BME280;8375;33.594;-117.718;2023-05-12T02:39:32;100180.28;;;16.71;76.29
16525;BME280;8375;33.594;-117.718;2023-05-12T02:42:01;100179.94;;;16.66;76.30
16525;BME280;8375;33.594;-117.718;2023-05-12T02:44:30;100181.41;;;16.61;77.16
16525;BME280;8375;33.594;-117.718;2023-05-12T02:46:59;100187.63;;;16.60;77.14
16525;BME280;8375;33.594;-117.718;2023-05-12T02:49:27;100187.09;;;16.56;77.44
16525;BME280;8375;33.594;-117.718;2023-05-12T02:51:56;100192.34;;;16.56;77.36
16525;BME280;8375;33.594;-117.718;2023-05-12T02:54:27;100190.69;;;16.55;77.80
16525;BME280;8375;33.594;-117.718;2023-05-12T02:56:56;100192.66;;;16.53;77.74
16525;BME280;8375;33.594;-117.718;2023-05-12T02:59:25;100181.00;;;16.47;78.41
16525;BME280;8375;33.594;-117.718;2023-05-12T03:01:54;100193.28;;;16.47;78.15
16525;BME280;8375;33.594;-117.718;2023-05-12T03:04:23;100200.78;;;16.41;78.61
16525;BME280;8375;33.594;-117.718;2023-05-12T03:06:52;100193.19;;;16.30;78.51
16525;BME280;8375;33.594;-117.718;2023-05-12T03:09:20;100201.38;;;16.27;78.76
16525;BME280;8375;33.594;-117.718;2023-05-12T03:11:51;100200.56;;;16.26;79.26
16525;BME280;8375;33.594;-117.718;2023-05-12T03:14:20;100196.97;;;16.27;79.14
16525;BME280;8375;33.594;-117.718;2023-05-12T03:16:49;100197.94;;;16.26;79.25
16525;BME280;8375;33.594;-117.718;2023-05-12T03:19:18;100194.66;;;16.24;79.63
16525;BME280;8375;33.594;-117.718;2023-05-12T03:21:47;100200.81;;;16.15;79.64
16525;BME280;8375;33.594;-117.718;2023-05-12T03:24:16;100199.31;;;16.12;79.97
16525;BME280;8375;33.594;-117.718;2023-05-12T03:26:44;100200.28;;;16.11;79.98
16525;BME280;8375;33.594;-117.718;2023-05-12T03:29:15;100199.44;;;16.03;80.28
16525;BME280;8375;33.594;-117.718;2023-05-12T03:31:44;100201.38;;;16.01;81.16
16525;BME280;8375;33.594;-117.718;2023-05-12T03:34:13;100196.28;;;15.99;80.95
16525;BME280;8375;33.594;-117.718;2023-05-12T03:36:42;100205.06;;;15.90;81.62
16525;BME280;8375;33.594;-117.718;2023-05-12T03:39:11;100199.97;;;15.88;81.95
16525;BME280;8375;33.594;-117.718;2023-05-12T03:41:40;100208.09;;;15.85;82.24
16525;BME280;8375;33.594;-117.718;2023-05-12T03:44:09;100207.41;;;15.83;82.21
16525;BME280;8375;33.594;-117.718;2023-05-12T03:46:40;100208.31;;;15.74;82.29
16525;BME280;8375;33.594;-117.718;2023-05-12T03:49:08;100207.97;;;15.68;82.51
16525;BME280;8375;33.594;-117.718;2023-05-12T03:51:37;100209.53;;;15.61;82.50
16525;BME280;8375;33.594;-117.718;2023-05-12T03:54:06;100210.50;;;15.60;83.79
16525;BME280;8375;33.594;-117.718;2023-05-12T03:56:35;100213.72;;;15.54;83.24
16525;BME280;8375;33.594;-117.718;2023-05-12T03:59:04;100215.38;;;15.55;83.76
16525;BME280;8375;33.594;-117.718;2023-05-12T04:01:32;100218.59;;;15.49;84.31
16525;BME280;8375;33.594;-117.718;2023-05-12T04:04:03;100215.16;;;15.48;85.02
16525;BME280;8375;33.594;-117.718;2023-05-12T04:06:32;100220.69;;;15.45;84.50
16525;BME280;8375;33.594;-117.718;2023-05-12T04:09:02;100224.03;;;15.37;84.22
16525;BME280;8375;33.594;-117.718;2023-05-12T04:11:31;100229.44;;;15.36;84.69
16525;BME280;8375;33.594;-117.718;2023-05-12T04:14:00;100230.16;;;15.28;84.94
16525;BME280;8375;33.594;-117.718;2023-05-12T04:16:29;100242.63;;;15.16;85.52
16525;BME280;8375;33.594;-117.718;2023-05-12T04:18:57;100253.22;;;15.15;86.32
16525;BME280;8375;33.594;-117.718;2023-05-12T04:21:28;100253.53;;;15.11;85.84
16525;BME280;8375;33.594;-117.718;2023-05-12T04:23:58;100250.09;;;15.11;85.48
16525;BME280;8375;33.594;-117.718;2023-05-12T04:26:27;100257.25;;;15.09;86.22
16525;BME280;8375;33.594;-117.718;2023-05-12T04:28:56;100260.97;;;15.06;86.07
16525;BME280;8375;33.594;-117.718;2023-05-12T04:31:25;100256.63;;;14.97;86.23
16525;BME280;8375;33.594;-117.718;2023-05-12T04:33:53;100264.19;;;15.00;86.80
16525;BME280;8375;33.594;-117.718;2023-05-12T04:36:22;100271.09;;;14.91;86.58
16525;BME280;8375;33.594;-117.718;2023-05-12T04:38:53;100267.56;;;14.82;87.31
16525;BME280;8375;33.594;-117.718;2023-05-12T04:41:22;100271.13;;;14.81;87.90
16525;BME280;8375;33.594;-117.718;2023-05-12T04:43:54;100270.75;;;14.76;87.54
16525;BME280;8375;33.594;-117.718;2023-05-12T04:46:22;100265.81;;;14.73;88.40
16525;BME280;8375;33.594;-117.718;2023-05-12T04:48:51;100266.47;;;14.75;88.56
16525;BME280;8375;33.594;-117.718;2023-05-12T04:51:20;100258.81;;;14.74;88.55
16525;BME280;8375;33.594;-117.718;2023-05-12T04:53:49;100259.91;;;14.71;88.63
16525;BME280;8375;33.594;-117.718;2023-05-12T04:56:19;100266.78;;;14.72;88.43
16525;BME280;8375;33.594;-117.718;2023-05-12T04:58:48;100259.09;;;14.71;88.82
16525;BME280;8375;33.594;-117.718;2023-05-12T05:01:17;100260.44;;;14.65;88.76
16525;BME280;8375;33.594;-117.718;2023-05-12T05:03:46;100260.44;;;14.65;89.30
16525;BME280;8375;33.594;-117.718;2023-05-12T05:06:15;100262.66;;;14.60;89.09
16525;BME280;8375;33.594;-117.718;2023-05-12T05:08:43;100264.19;;;14.52;89.18
16525;BME280;8375;33.594;-117.718;2023-05-12T05:11:12;100263.81;;;14.47;88.82
16525;BME280;8375;33.594;-117.718;2023-05-12T05:13:42;100267.31;;;14.28;89.83
16525;BME280;8375;33.594;-117.718;2023-05-12T05:16:11;100271.28;;;14.22;90.60
16525;BME280;8375;33.594;-117.718;2023-05-12T05:18:40;100258.78;;;14.16;91.32
16525;BME280;8375;33.594;-117.718;2023-05-12T05:21:11;100255.91;;;14.19;91.96
16525;BME280;8375;33.594;-117.718;2023-05-12T05:23:41;100258.50;;;14.19;91.99
16525;BME280;8375;33.594;-117.718;2023-05-12T05:26:10;100257.81;;;14.17;91.25
16525;BME280;8375;33.594;-117.718;2023-05-12T05:28:38;100260.72;;;14.14;91.23
16525;BME280;8375;33.594;-117.718;2023-05-12T05:31:14;100258.66;;;14.08;91.39
16525;BME280;8375;33.594;-117.718;2023-05-12T05:33:43;100255.66;;;14.03;91.51
16525;BME280;8375;33.594;-117.718;2023-05-12T05:36:12;100253.19;;;14.01;91.94
16525;BME280;8375;33.594;-117.718;2023-05-12T05:38:41;100258.41;;;14.01;92.35
16525;BME280;8375;33.594;-117.718;2023-05-12T05:41:10;100254.84;;;14.02;92.73
16525;BME280;8375;33.594;-117.718;2023-05-12T05:43:39;100263.75;;;14.00;92.88
16525;BME280;8375;33.594;-117.718;2023-05-12T05:46:09;100266.63;;;13.97;92.90
16525;BME280;8375;33.594;-117.718;2023-05-12T05:48:38;100273.78;;;13.94;92.95
16525;BME280;8375;33.594;-117.718;2023-05-12T05:51:07;100260.06;;;13.92;92.95
16525;BME280;8375;33.594;-117.718;2023-05-12T05:53:37;100260.59;;;13.86;93.11
16525;BME280;8375;33.594;-117.718;2023-05-12T05:56:06;100266.09;;;13.83;92.93
16525;BME280;8375;33.594;-117.718;2023-05-12T05:58:34;100263.22;;;13.76;93.06
16525;BME280;8375;33.594;-117.718;2023-05-12T06:01:04;100261.31;;;13.78;93.56
16525;BME280;8375;33.594;-117.718;2023-05-12T06:03:34;100272.44;;;13.81;93.93
16525;BME280;8375;33.594;-117.718;2023-05-12T06:06:03;100258.28;;;13.73;94.07
16525;BME280;8375;33.594;-117.718;2023-05-12T06:08:32;100257.44;;;13.73;94.13
16525;BME280;8375;33.594;-117.718;2023-05-12T06:11:01;100257.44;;;13.73;94.29
16525;BME280;8375;33.594;-117.718;2023-05-12T06:13:30;100256.47;;;13.74;95.28
16525;BME280;8375;33.594;-117.718;2023-05-12T06:15:59;100243.88;;;13.69;95.17
16525;BME280;8375;33.594;-117.718;2023-05-12T06:18:27;100247.84;;;13.63;95.36
16525;BME280;8375;33.594;-117.718;2023-05-12T06:20:58;100250.88;;;13.59;95.50
16525;BME280;8375;33.594;-117.718;2023-05-12T06:23:27;100247.69;;;13.55;94.86
16525;BME280;8375;33.594;-117.718;2023-05-12T06:25:56;100251.41;;;13.53;94.98
16525;BME280;8375;33.594;-117.718;2023-05-12T06:28:24;100257.28;;;13.45;95.43
16525;BME280;8375;33.594;-117.718;2023-05-12T06:30:53;100251.25;;;13.44;95.17
16525;BME280;8375;33.594;-117.718;2023-05-12T06:33:22;100252.47;;;13.40;96.16
16525;BME280;8375;33.594;-117.718;2023-05-12T06:35:51;100251.22;;;13.34;95.98
16525;BME280;8375;33.594;-117.718;2023-05-12T06:38:21;100246.00;;;13.34;96.39
16525;BME280;8375;33.594;-117.718;2023-05-12T06:40:50;100245.72;;;13.38;96.11
16525;BME280;8375;33.594;-117.718;2023-05-12T06:43:19;100248.47;;;13.36;96.66
16525;BME280;8375;33.594;-117.718;2023-05-12T06:45:48;100242.31;;;13.37;96.91
16525;BME280;8375;33.594;-117.718;2023-05-12T06:48:17;100249.06;;;13.49;97.69
16525;BME280;8375;33.594;-117.718;2023-05-12T06:50:46;100239.75;;;13.57;98.06
16525;BME280;8375;33.594;-117.718;2023-05-12T06:53:15;100247.97;;;13.52;97.66
16525;BME280;8375;33.594;-117.718;2023-05-12T06:55:45;100247.84;;;13.54;97.76
16525;BME280;8375;33.594;-117.718;2023-05-12T06:58:15;100252.78;;;13.57;97.36
16525;BME280;8375;33.594;-117.718;2023-05-12T07:00:44;100247.41;;;13.58;97.65
16525;BME280;8375;33.594;-117.718;2023-05-12T07:03:13;100255.66;;;13.63;98.09
16525;BME280;8375;33.594;-117.718;2023-05-12T07:05:42;100258.84;;;13.67;98.35
16525;BME280;8375;33.594;-117.718;2023-05-12T07:08:11;100255.94;;;13.70;98.02
16525;BME280;8375;33.594;-117.718;2023-05-12T07:10:39;100256.75;;;13.71;97.33
16525;BME280;8375;33.594;-117.718;2023-05-12T07:13:10;100258.00;;;13.76;97.63
16525;BME280;8375;33.594;-117.718;2023-05-12T07:15:39;100249.34;;;13.76;97.31
16525;BME280;8375;33.594;-117.718;2023-05-12T07:18:08;100250.31;;;13.75;97.51
16525;BME280;8375;33.594;-117.718;2023-05-12T07:20:36;100248.09;;;13.80;97.52
16525;BME280;8375;33.594;-117.718;2023-05-12T07:23:05;100247.41;;;13.78;97.23
16525;BME280;8375;33.594;-117.718;2023-05-12T07:25:34;100242.63;;;13.83;97.63
16525;BME280;8375;33.594;-117.718;2023-05-12T07:28:03;100234.50;;;13.86;97.64
16525;BME280;8375;33.594;-117.718;2023-05-12T07:30:34;100237.28;;;13.85;97.53
16525;BME280;8375;33.594;-117.718;2023-05-12T07:33:04;100239.03;;;13.84;98.08
16525;BME280;8375;33.594;-117.718;2023-05-12T07:35:34;100236.31;;;13.86;97.54
16525;BME280;8375;33.594;-117.718;2023-05-12T07:38:02;100240.69;;;13.85;97.55
16525;BME280;8375;33.594;-117.718;2023-05-12T07:40:31;100240.00;;;13.83;97.82
16525;BME280;8375;33.594;-117.718;2023-05-12T07:43:00;100246.59;;;13.87;98.17
16525;BME280;8375;33.594;-117.718;2023-05-12T07:45:29;100250.28;;;13.94;97.80
16525;BME280;8375;33.594;-117.718;2023-05-12T07:47:59;100241.09;;;13.90;97.16
16525;BME280;8375;33.594;-117.718;2023-05-12T07:50:28;100244.13;;;13.86;97.42
16525;BME280;8375;33.594;-117.718;2023-05-12T07:52:57;100245.78;;;13.87;97.11
16525;BME280;8375;33.594;-117.718;2023-05-12T07:55:26;100238.22;;;13.93;97.90
16525;BME280;8375;33.594;-117.718;2023-05-12T07:57:54;100239.47;;;13.99;97.74
16525;BME280;8375;33.594;-117.718;2023-05-12T08:00:23;100233.41;;;13.99;97.60
16525;BME280;8375;33.594;-117.718;2023-05-12T08:02:52;100240.81;;;13.93;96.16
16525;BME280;8375;33.594;-117.718;2023-05-12T08:05:22;100233.41;;;13.89;96.36
16525;BME280;8375;33.594;-117.718;2023-05-12T08:07:51;100235.88;;;13.90;95.97
16525;BME280;8375;33.594;-117.718;2023-05-12T08:10:19;100234.91;;;13.91;96.13
16525;BME280;8375;33.594;-117.718;2023-05-12T08:12:52;100230.25;;;13.95;96.55
16525;BME280;8375;33.594;-117.718;2023-05-12T08:15:20;100233.41;;;13.99;97.37
16525;BME280;8375;33.594;-117.718;2023-05-12T08:17:49;100236.13;;;14.07;98.01
16525;BME280;8375;33.594;-117.718;2023-05-12T08:20:18;100232.16;;;14.13;98.43
16525;BME280;8375;33.594;-117.718;2023-05-12T08:22:48;100228.72;;;14.12;97.40
16525;BME280;8375;33.594;-117.718;2023-05-12T08:25:17;100222.41;;;14.15;97.89
16525;BME280;8375;33.594;-117.718;2023-05-12T08:27:45;100220.75;;;14.14;97.23
16525;BME280;8375;33.594;-117.718;2023-05-12T08:30:14;100222.53;;;14.13;97.48
16525;BME280;8375;33.594;-117.718;2023-05-12T08:32:43;100222.41;;;14.15;97.42
16525;BME280;8375;33.594;-117.718;2023-05-12T08:35:12;100223.19;;;14.15;96.61
16525;BME280;8375;33.594;-117.718;2023-05-12T08:37:41;100226.94;;;14.13;96.88
16525;BME280;8375;33.594;-117.718;2023-05-12T08:40:14;100224.16;;;14.14;97.50
16525;BME280;8375;33.594;-117.718;2023-05-12T08:42:51;100222.13;;;14.18;98.05
16525;BME280;8375;33.594;-117.718;2023-05-12T08:45:22;100222.41;;;14.15;97.73
16525;BME280;8375;33.594;-117.718;2023-05-12T08:47:52;100226.94;;;14.13;97.67
16525;BME280;8375;33.594;-117.718;2023-05-12T08:50:22;100225.81;;;14.15;97.26
16525;BME280;8375;33.594;-117.718;2023-05-12T08:52:51;100222.13;;;14.08;96.93
16525;BME280;8375;33.594;-117.718;2023-05-12T08:55:23;100215.25;;;14.07;96.52
16525;BME280;8375;33.594;-117.718;2023-05-12T08:57:52;100223.91;;;14.07;96.48
16525;BME280;8375;33.594;-117.718;2023-05-12T09:00:23;100214.56;;;14.15;97.11
16525;BME280;8375;33.594;-117.718;2023-05-12T09:02:52;100203.28;;;14.14;96.56
16525;BME280;8375;33.594;-117.718;2023-05-12T09:05:21;100204.81;;;14.17;96.11
16525;BME280;8375;33.594;-117.718;2023-05-12T09:07:51;100203.84;;;14.18;95.42
16525;BME280;8375;33.594;-117.718;2023-05-12T09:10:24;100200.09;;;14.20;95.09
16525;BME280;8375;33.594;-117.718;2023-05-12T09:12:54;100189.66;;;14.20;94.58
16525;BME280;8375;33.594;-117.718;2023-05-12T09:15:31;100185.41;;;14.19;94.64
16525;BME280;8375;33.594;-117.718;2023-05-12T09:18:01;100188.84;;;14.20;95.51
16525;BME280;8375;33.594;-117.718;2023-05-12T09:20:30;100194.09;;;14.10;94.83
16525;BME280;8375;33.594;-117.718;2023-05-12T09:22:59;100201.41;;;14.06;94.64
16525;BME280;8375;33.594;-117.718;2023-05-12T09:25:40;100189.31;;;13.96;93.87
16525;BME280;8375;33.594;-117.718;2023-05-12T09:28:08;100193.84;;;13.93;95.01
16525;BME280;8375;33.594;-117.718;2023-05-12T09:30:37;100202.63;;;13.92;94.60
16525;BME280;8375;33.594;-117.718;2023-05-12T09:33:08;100197.41;;;13.92;95.24
16525;BME280;8375;33.594;-117.718;2023-05-12T09:35:40;100201.84;;;13.92;95.27
16525;BME280;8375;33.594;-117.718;2023-05-12T09:38:10;100195.50;;;13.94;94.91
16525;BME280;8375;33.594;-117.718;2023-05-12T09:40:41;100191.53;;;13.90;95.20
16525;BME280;8375;33.594;-117.718;2023-05-12T09:43:10;100192.19;;;13.92;95.55
16525;BME280;8375;33.594;-117.718;2023-05-12T09:45:39;100185.34;;;14.01;96.71
16525;BME280;8375;33.594;-117.718;2023-05-12T09:48:09;100196.00;;;14.08;97.17
16525;BME280;8375;33.594;-117.718;2023-05-12T09:50:45;100191.06;;;14.15;96.82
16525;BME280;8375;33.594;-117.718;2023-05-12T09:53:15;100187.34;;;14.17;96.11
16525;BME280;8375;33.594;-117.718;2023-05-12T09:55:47;100177.88;;;14.16;95.51
16525;BME280;8375;33.594;-117.718;2023-05-12T09:58:18;100180.19;;;14.19;95.39
16525;BME280;8375;33.594;-117.718;2023-05-12T10:00:47;100186.38;;;14.18;95.42
16525;BME280;8375;33.594;-117.718;2023-05-12T10:03:17;100175.00;;;14.10;93.77
16525;BME280;8375;33.594;-117.718;2023-05-12T10:05:52;100183.66;;;14.10;94.34
16525;BME280;8375;33.594;-117.718;2023-05-12T10:08:26;100177.19;;;14.14;95.72
16525;BME280;8375;33.594;-117.718;2023-05-12T10:10:59;100177.88;;;14.16;95.08
16525;BME280;8375;33.594;-117.718;2023-05-12T10:13:29;100180.06;;;14.21;95.93
16525;BME280;8375;33.594;-117.718;2023-05-12T10:15:58;100178.13;;;14.23;95.09
16525;BME280;8375;33.594;-117.718;2023-05-12T10:18:27;100183.63;;;14.20;93.78
16525;BME280;8375;33.594;-117.718;2023-05-12T10:20:57;100184.59;;;14.19;94.09
16525;BME280;8375;33.594;-117.718;2023-05-12T10:23:26;100177.88;;;14.16;94.41
16525;BME280;8375;33.594;-117.718;2023-05-12T10:25:55;100175.53;;;14.13;95.19
16525;BME280;8375;33.594;-117.718;2023-05-12T10:28:29;100181.72;;;14.12;94.96
16525;BME280;8375;33.594;-117.718;2023-05-12T10:30:58;100178.31;;;14.02;96.19
16525;BME280;8375;33.594;-117.718;2023-05-12T10:33:27;100171.59;;;13.89;96.17
16525;BME280;8375;33.594;-117.718;2023-05-12T10:35:55;100184.09;;;13.96;96.98
16525;BME280;8375;33.594;-117.718;2023-05-12T10:38:24;100183.69;;;14.00;97.27
16525;BME280;8375;33.594;-117.718;2023-05-12T10:40:54;100183.13;;;14.06;97.62
16525;BME280;8375;33.594;-117.718;2023-05-12T10:43:24;100179.53;;;14.07;97.07
16525;BME280;8375;33.594;-117.718;2023-05-12T10:46:17;100182.56;;;14.03;96.48
16525;BME280;8375;33.594;-117.718;2023-05-12T10:48:54;100184.38;;;14.02;97.13
16525;BME280;8375;33.594;-117.718;2023-05-12T10:51:24;100184.09;;;14.05;97.84
16525;BME280;8375;33.594;-117.718;2023-05-12T10:53:56;100184.38;;;14.02;97.32
16525;BME280;8375;33.594;-117.718;2023-05-12T10:56:26;100187.25;;;13.99;98.24
16525;BME280;8375;33.594;-117.718;2023-05-12T10:59:12;100184.66;;;13.89;98.62
16525;BME280;8375;33.594;-117.718;2023-05-12T11:01:58;100184.94;;;13.86;99.07
16525;BME280;8375;33.594;-117.718;2023-05-12T11:04:38;100186.47;;;13.89;98.75
16525;BME280;8375;33.594;-117.718;2023-05-12T11:07:11;100184.53;;;13.91;99.07
16525;BME280;8375;33.594;-117.718;2023-05-12T11:09:41;100181.75;;;13.92;98.95
16525;BME280;8375;33.594;-117.718;2023-05-12T11:12:10;100179.84;;;13.94;99.11
16525;BME280;8375;33.594;-117.718;2023-05-12T11:14:42;100178.06;;;13.95;98.82
16525;BME280;8375;33.594;-117.718;2023-05-12T11:17:13;100185.75;;;13.97;99.44
16525;BME280;8375;33.594;-117.718;2023-05-12T11:19:45;100181.19;;;13.99;100.00
16525;BME280;8375;33.594;-117.718;2023-05-12T11:22:17;100179.28;;;14.01;99.99
16525;BME280;8375;33.594;-117.718;2023-05-12T11:24:46;100192.19;;;14.02;99.34
16525;BME280;8375;33.594;-117.718;2023-05-12T11:27:16;100185.63;;;13.98;98.61
16525;BME280;8375;33.594;-117.718;2023-05-12T11:29:55;100181.88;;;14.01;99.08
16525;BME280;8375;33.594;-117.718;2023-05-12T11:32:26;100183.28;;;13.95;98.76
16525;BME280;8375;33.594;-117.718;2023-05-12T11:34:54;100181.34;;;13.97;99.44
16525;BME280;8375;33.594;-117.718;2023-05-12T11:37:23;100176.53;;;13.92;97.15
16525;BME280;8375;33.594;-117.718;2023-05-12T11:39:52;100180.41;;;13.88;97.96
16525;BME280;8375;33.594;-117.718;2023-05-12T11:42:21;100178.63;;;13.89;98.54
16525;BME280;8375;33.594;-117.718;2023-05-12T11:44:49;100173.13;;;13.92;98.10
16525;BME280;8375;33.594;-117.718;2023-05-12T11:47:19;100169.28;;;13.96;98.14
16525;BME280;8375;33.594;-117.718;2023-05-12T11:49:50;100175.97;;;13.99;98.31
16525;BME280;8375;33.594;-117.718;2023-05-12T11:52:21;100181.06;;;14.00;97.85
16525;BME280;8375;33.594;-117.718;2023-05-12T11:54:50;100168.44;;;14.05;98.52
16525;BME280;8375;33.594;-117.718;2023-05-12T11:57:26;100164.69;;;14.08;98.71
16525;BME280;8375;33.594;-117.718;2023-05-12T11:59:58;100161.69;;;14.13;99.43
16525;BME280;8375;33.594;-117.718;2023-05-12T12:02:27;100166.63;;;14.06;98.48
16525;BME280;8375;33.594;-117.718;2023-05-12T12:04:58;100164.00;;;14.06;98.52
16525;BME280;8375;33.594;-117.718;2023-05-12T12:07:30;100163.88;;;14.07;98.85
16525;BME280;8375;33.594;-117.718;2023-05-12T12:10:10;100172.53;;;14.08;99.00
16525;BME280;8375;33.594;-117.718;2023-05-12T12:12:39;100167.47;;;14.06;99.30
16525;BME280;8375;33.594;-117.718;2023-05-12T12:15:08;100163.72;;;14.09;98.93
16525;BME280;8375;33.594;-117.718;2023-05-12T12:17:37;100170.38;;;13.93;98.71
16525;BME280;8375;33.594;-117.718;2023-05-12T12:20:09;100170.25;;;13.95;99.29
16525;BME280;8375;33.594;-117.718;2023-05-12T12:22:37;100171.31;;;13.92;99.14
16525;BME280;8375;33.594;-117.718;2023-05-12T12:25:07;100164.47;;;13.91;99.29
16525;BME280;8375;33.594;-117.718;2023-05-12T12:27:36;100167.47;;;13.97;100.00
16525;BME280;8375;33.594;-117.718;2023-05-12T12:30:06;100170.25;;;13.95;99.49
16525;BME280;8375;33.594;-117.718;2023-05-12T12:32:35;100172.00;;;13.94;100.00
16525;BME280;8375;33.594;-117.718;2023-05-12T12:35:04;100169.97;;;13.98;100.00
16525;BME280;8375;33.594;-117.718;2023-05-12T12:37:34;100174.75;;;14.03;100.00
16525;BME280;8375;33.594;-117.718;2023-05-12T12:40:04;100170.25;;;13.95;99.55
16525;BME280;8375;33.594;-117.718;2023-05-12T12:42:34;100174.50;;;13.96;100.00
16525;BME280;8375;33.594;-117.718;2023-05-12T12:45:04;100181.06;;;14.00;100.00